Time;durP1;ratioP1;P1;durP2;ratioP2;P2;SDS_P1;SDS_P2;PMS_P1;PMS_P2;Temp;Humidity;BMP_temperature;BMP_pressure;BME280_temperature;BME280_humidity;BME280_pressure;Samples;Min_cycle;Max_cycle;Signal;HPM_P1;HPM_P2
2021/10/30 00:00:01;;;;;;;34.65;16.55;;;;;;;9.04;81.36;101716.34;1779618;80;21479;-64
2021/10/30 00:02:33;;;;;;;31.50;16.25;;;;;;;9.04;81.47;101713.60;1779512;80;21067;-67
2021/10/30 00:05:03;;;;;;;33.90;16.42;;;;;;;9.05;81.43;101711.22;1779482;80;21102;-67
2021/10/30 00:07:34;;;;;;;32.58;16.62;;;;;;;9.03;81.40;101709.66;1779732;80;21066;-67
2021/10/30 00:10:04;;;;;;;30.75;15.78;;;;;;;8.97;81.35;101711.14;1779370;80;21082;-65
2021/10/30 00:12:33;;;;;;;32.08;15.45;;;;;;;8.88;81.52;101707.46;1779810;80;21636;-64
2021/10/30 00:15:03;;;;;;;34.70;17.07;;;;;;;8.87;81.66;101710.34;1779858;80;21537;-66
2021/10/30 00:17:32;;;;;;;31.85;15.78;;;;;;;8.84;81.75;101710.15;1779338;80;21106;-65
2021/10/30 00:20:01;;;;;;;32.60;16.12;;;;;;;8.86;81.83;101714.09;1779661;80;21031;-65
2021/10/30 00:22:31;;;;;;;31.80;15.83;;;;;;;8.82;81.81;101710.81;1779758;80;21628;-65
2021/10/30 00:25:00;;;;;;;34.48;16.70;;;;;;;8.78;81.92;101703.08;1779647;80;21517;-66
2021/10/30 00:27:29;;;;;;;36.08;16.87;;;;;;;8.78;81.99;101701.20;1779756;80;21066;-67
2021/10/30 00:29:59;;;;;;;31.95;15.48;;;;;;;8.79;81.98;101700.70;1779963;80;21548;-65
2021/10/30 00:32:29;;;;;;;35.43;17.05;;;;;;;8.79;82.00;101700.19;1779721;80;21016;-66
2021/10/30 00:34:58;;;;;;;33.23;15.83;;;;;;;8.81;82.03;101702.77;1779534;80;21042;-66
2021/10/30 00:37:27;;;;;;;32.28;15.43;;;;;;;8.80;82.09;101707.87;1779690;80;21042;-65
2021/10/30 00:39:56;;;;;;;29.37;15.68;;;;;;;8.77;82.05;101706.83;1779718;80;20995;-66
2021/10/30 00:42:26;;;;;;;34.63;15.58;;;;;;;8.75;82.17;101706.12;1775963;80;21066;-65
2021/10/30 00:44:55;;;;;;;34.43;15.93;;;;;;;8.77;82.15;101709.55;1760861;81;21111;-65
2021/10/30 00:47:24;;;;;;;32.00;16.23;;;;;;;8.76;82.11;101704.59;1760485;81;21055;-66
2021/10/30 00:49:53;;;;;;;29.00;15.90;;;;;;;8.77;82.11;101704.09;1760447;81;21509;-66
2021/10/30 00:52:22;;;;;;;30.90;14.38;;;;;;;8.76;82.17;101702.38;1760526;81;21215;-65
2021/10/30 00:54:53;;;;;;;36.85;16.07;;;;;;;8.73;82.16;101704.91;1760306;81;21067;-66
2021/10/30 00:57:21;;;;;;;33.02;16.00;;;;;;;8.73;82.17;101704.91;1739447;81;21019;-66
2021/10/30 00:59:50;;;;;;;33.67;15.40;;;;;;;8.74;82.22;101705.77;1760492;81;21508;-66
2021/10/30 01:02:21;;;;;;;28.98;14.95;;;;;;;8.77;82.26;101705.45;1760504;81;20996;-65
2021/10/30 01:04:51;;;;;;;31.05;15.50;;;;;;;8.78;82.17;101705.81;1760577;81;21498;-67
2021/10/30 01:07:20;;;;;;;33.85;16.20;;;;;;;8.76;82.16;101701.00;1760172;81;21498;-66
2021/10/30 01:09:51;;;;;;;31.70;15.10;;;;;;;8.75;82.09;101700.66;1760092;81;21071;-65
2021/10/30 01:12:20;;;;;;;26.62;14.23;;;;;;;8.76;82.14;101700.50;1760661;81;21048;-67
2021/10/30 01:14:51;;;;;;;31.05;15.00;;;;;;;8.79;82.12;101704.29;1760532;81;21448;-67
2021/10/30 01:17:20;;;;;;;30.27;15.55;;;;;;;8.76;82.01;101702.38;1760408;81;21063;-65
2021/10/30 01:19:54;;;;;;;30.20;14.65;;;;;;;8.73;82.09;101702.17;1760374;81;21011;-65
2021/10/30 01:22:23;;;;;;;33.55;16.75;;;;;;;8.72;82.17;101696.36;1760612;81;21186;-65
2021/10/30 01:24:52;;;;;;;32.48;15.65;;;;;;;8.74;82.14;101707.98;1760572;81;21051;-66
2021/10/30 01:27:21;;;;;;;27.62;14.93;;;;;;;8.76;82.12;101701.00;1760312;81;21059;-65
2021/10/30 01:29:51;;;;;;;29.57;15.15;;;;;;;8.78;82.09;101701.70;1760370;81;21199;-65
2021/10/30 01:32:20;;;;;;;30.65;15.60;;;;;;;8.76;82.09;101699.13;1760373;81;21155;-65
2021/10/30 01:34:49;;;;;;;30.85;16.25;;;;;;;8.77;82.06;101694.02;1760736;81;21904;-65
2021/10/30 01:37:18;;;;;;;31.70;16.23;;;;;;;8.79;81.98;101696.59;1760340;81;21047;-66
2021/10/30 01:39:47;;;;;;;32.78;16.07;;;;;;;8.78;81.96;101698.47;1760090;81;21051;-66
2021/10/30 01:42:16;;;;;;;31.10;16.12;;;;;;;8.77;81.98;101699.99;1762407;79;21004;-64
2021/10/30 01:44:45;;;;;;;35.78;16.17;;;;;;;8.75;81.99;101704.75;1777313;80;21438;-66
2021/10/30 01:47:15;;;;;;;32.20;16.07;;;;;;;8.72;82.03;101700.45;1777127;80;21415;-66
2021/10/30 01:49:44;;;;;;;28.70;14.90;;;;;;;8.72;82.04;101696.36;1777357;81;21561;-65
2021/10/30 01:52:13;;;;;;;30.90;15.50;;;;;;;8.75;82.02;101700.66;1777224;81;21063;-65
2021/10/30 01:54:43;;;;;;;32.40;14.98;;;;;;;8.77;82.01;101694.52;1776876;81;21820;-66
2021/10/30 01:57:12;;;;;;;36.35;16.02;;;;;;;8.79;81.98;101700.70;1777084;80;21514;-63
2021/10/30 01:59:40;;;;;;;33.42;15.98;;;;;;;8.80;81.86;101707.38;1777271;80;21035;-66
2021/10/30 02:02:09;;;;;;;31.48;15.40;;;;;;;8.80;81.79;101707.87;1777162;80;21537;-65
2021/10/30 02:04:39;;;;;;;36.00;16.23;;;;;;;8.78;81.77;101703.08;1777156;80;21023;-65
2021/10/30 02:07:08;;;;;;;31.85;14.93;;;;;;;8.77;81.79;101702.22;1777601;80;21478;-65
2021/10/30 02:09:36;;;;;;;31.75;14.87;;;;;;;8.73;81.82;101705.41;1777143;80;21071;-66
2021/10/30 02:12:07;;;;;;;27.93;14.18;;;;;;;8.75;81.82;101707.48;1776881;81;21551;-67
2021/10/30 02:14:35;;;;;;;31.02;14.95;;;;;;;8.75;81.80;101710.22;1777237;81;21158;-66
2021/10/30 02:17:05;;;;;;;28.25;14.70;;;;;;;8.77;81.74;101709.55;1777526;81;21070;-67
2021/10/30 02:19:34;;;;;;;29.55;15.13;;;;;;;8.76;81.70;101705.96;1777214;80;20996;-66
2021/10/30 02:22:04;;;;;;;23.42;13.03;;;;;;;8.76;81.72;101706.47;1777135;81;21050;-66
2021/10/30 02:24:33;;;;;;;30.00;14.33;;;;;;;8.78;81.64;101705.81;1777264;81;21074;-66
2021/10/30 02:27:03;;;;;;;30.95;15.03;;;;;;;8.78;81.48;101706.67;1777395;80;21031;-66
2021/10/30 02:29:32;;;;;;;28.80;14.25;;;;;;;8.74;81.38;101719.42;1777083;81;21106;-66
2021/10/30 02:32:02;;;;;;;31.70;15.60;;;;;;;8.72;81.46;101707.28;1777291;81;21490;-67
2021/10/30 02:34:31;;;;;;;29.40;15.45;;;;;;;8.73;81.48;101714.47;1777495;80;21403;-66
2021/10/30 02:37:00;;;;;;;31.68;15.98;;;;;;;8.74;81.46;101717.55;1753815;81;21439;-64
2021/10/30 02:39:30;;;;;;;28.25;13.78;;;;;;;8.72;81.50;101715.98;1772948;81;21459;-65
2021/10/30 02:41:59;;;;;;;25.92;13.45;;;;;;;8.72;81.53;101724.19;1777396;80;21050;-65
2021/10/30 02:44:30;;;;;;;28.92;13.80;;;;;;;8.71;81.52;101719.23;1779276;80;21447;-65
2021/10/30 02:47:01;;;;;;;30.50;14.43;;;;;;;8.70;81.53;101724.84;1779629;80;21439;-66
2021/10/30 02:49:31;;;;;;;27.32;14.20;;;;;;;8.70;81.52;101720.75;1779572;80;21482;-64
2021/10/30 02:52:02;;;;;;;29.65;14.98;;;;;;;8.73;81.52;101725.91;1779373;80;21058;-65
2021/10/30 02:54:31;;;;;;;32.20;15.60;;;;;;;8.71;81.51;101725.20;1779588;80;21018;-65
2021/10/30 02:56:59;;;;;;;30.77;16.02;;;;;;;8.70;81.56;101724.84;1779740;80;21022;-67
2021/10/30 02:59:28;;;;;;;32.90;15.55;;;;;;;8.70;81.67;101723.48;1779645;80;21046;-67
2021/10/30 03:01:57;;;;;;;31.48;16.27;;;;;;;8.70;81.67;101731.17;1779677;80;21561;-66
2021/10/30 03:04:27;;;;;;;32.10;15.65;;;;;;;8.73;81.63;101730.00;1779329;80;21509;-66
2021/10/30 03:06:55;;;;;;;31.45;15.23;;;;;;;8.71;81.60;101738.36;1779636;80;21492;-65
2021/10/30 03:09:24;;;;;;;26.73;14.43;;;;;;;8.67;81.67;101731.48;1779542;80;21031;-67
2021/10/30 03:11:53;;;;;;;31.35;14.83;;;;;;;8.61;81.70;101729.86;1779590;80;21533;-66
2021/10/30 03:14:24;;;;;;;24.23;12.20;;;;;;;8.56;81.84;101734.42;1779314;80;21439;-66
2021/10/30 03:16:53;;;;;;;24.98;12.50;;;;;;;8.55;81.95;101731.33;1779734;80;21054;-70
2021/10/30 03:19:22;;;;;;;25.37;13.48;;;;;;;8.56;81.88;101732.55;1779559;80;21058;-65
2021/10/30 03:21:51;;;;;;;30.68;15.25;;;;;;;8.55;81.90;101729.46;1779585;80;21745;-65
2021/10/30 03:24:21;;;;;;;29.92;14.35;;;;;;;8.55;81.98;101729.46;1779363;80;21015;-64
2021/10/30 03:26:49;;;;;;;33.88;14.78;;;;;;;8.56;82.02;101733.05;1779137;80;21035;-66
2021/10/30 03:29:18;;;;;;;28.40;14.15;;;;;;;8.56;82.01;101730.32;1779668;80;21450;-65
2021/10/30 03:31:47;;;;;;;30.10;14.10;;;;;;;8.51;82.04;101736.24;1779348;80;21512;-64
2021/10/30 03:34:16;;;;;;;24.43;14.03;;;;;;;8.47;82.17;101730.73;1780136;80;21529;-65
2021/10/30 03:36:45;;;;;;;30.05;14.10;;;;;;;8.48;82.26;101735.17;1779891;80;21469;-65
2021/10/30 03:39:14;;;;;;;28.40;14.75;;;;;;;8.51;82.30;101738.11;1779584;80;21055;-66
2021/10/30 03:41:43;;;;;;;30.30;14.45;;;;;;;8.55;82.27;101739.53;1779608;80;21153;-66
2021/10/30 03:44:12;;;;;;;28.98;15.28;;;;;;;8.57;82.19;101740.23;1779295;80;21070;-65
2021/10/30 03:46:41;;;;;;;25.05;13.28;;;;;;;8.53;82.12;101737.45;1779406;80;20991;-66
2021/10/30 03:49:10;;;;;;;24.70;13.68;;;;;;;8.49;82.18;101738.27;1779337;80;21212;-67
2021/10/30 03:51:42;;;;;;;27.02;14.20;;;;;;;8.47;82.27;101738.06;1779297;80;21470;-66
2021/10/30 03:54:11;;;;;;;29.55;13.98;;;;;;;8.51;82.26;101740.84;1779608;80;21051;-66
2021/10/30 03:56:40;;;;;;;25.92;13.10;;;;;;;8.52;82.25;101739.33;1779370;80;21570;-65
2021/10/30 03:59:09;;;;;;;28.02;14.30;;;;;;;8.52;82.25;101737.95;1779252;80;21031;-66
2021/10/30 04:01:39;;;;;;;28.42;13.95;;;;;;;8.48;82.28;101738.41;1779588;80;21090;-65
2021/10/30 04:04:08;;;;;;;28.60;13.78;;;;;;;8.46;82.38;101734.47;1779361;80;21564;-66
2021/10/30 04:06:39;;;;;;;24.47;13.05;;;;;;;8.47;82.46;101730.73;1779528;80;21023;-66
2021/10/30 04:09:07;;;;;;;25.27;12.28;;;;;;;8.51;82.50;101742.20;1779658;80;21585;-67
2021/10/30 04:11:38;;;;;;;25.27;13.45;;;;;;;8.51;82.55;101736.75;1770118;80;21443;-65
2021/10/30 04:14:07;;;;;;;27.42;13.30;;;;;;;8.49;82.53;101734.16;1772713;80;21050;-67
2021/10/30 04:16:36;;;;;;;24.57;12.68;;;;;;;8.51;82.59;101729.41;1790062;80;21462;-65
2021/10/30 04:19:05;;;;;;;24.12;12.18;;;;;;;8.53;82.58;101728.75;1795942;80;21091;-66
2021/10/30 04:21:35;;;;;;;27.67;13.15;;;;;;;8.52;82.45;101725.67;1779741;80;21439;-67
2021/10/30 04:24:05;;;;;;;26.73;13.75;;;;;;;8.48;82.49;101726.98;1779528;80;21539;-67
2021/10/30 04:26:34;;;;;;;25.45;13.05;;;;;;;8.46;82.67;101727.64;1779228;80;21058;-68
2021/10/30 04:29:04;;;;;;;24.12;12.23;;;;;;;8.48;82.71;101722.89;1779664;80;21702;-66
2021/10/30 04:31:34;;;;;;;25.80;12.70;;;;;;;8.47;82.71;101719.80;1779367;80;21098;-67
2021/10/30 04:34:04;;;;;;;27.82;12.55;;;;;;;8.50;82.74;101731.78;1779331;80;21552;-67
2021/10/30 04:36:35;;;;;;;31.30;14.15;;;;;;;8.49;82.76;101724.60;1779400;80;21054;-65
2021/10/30 04:39:05;;;;;;;31.45;14.58;;;;;;;8.48;82.83;101728.85;1779730;80;21058;-67
2021/10/30 04:41:38;;;;;;;29.10;13.88;;;;;;;8.48;82.93;101733.81;1779287;80;21513;-67
2021/10/30 04:44:08;;;;;;;29.40;13.80;;;;;;;8.51;82.99;101730.77;1778110;80;21148;-65
2021/10/30 04:46:37;;;;;;;31.90;13.80;;;;;;;8.51;82.92;101728.05;1777190;81;21509;-67
2021/10/30 04:49:08;;;;;;;21.25;11.78;;;;;;;8.46;82.98;101737.20;1777256;80;21035;-66
2021/10/30 04:51:40;;;;;;;24.52;12.00;;;;;;;8.41;83.05;101735.39;1777356;81;21439;-66
2021/10/30 04:54:09;;;;;;;24.57;11.95;;;;;;;8.39;83.01;101731.09;1753554;81;21129;-67
2021/10/30 04:56:39;;;;;;;27.52;13.05;;;;;;;8.40;82.96;101730.95;1777379;80;21019;-65
2021/10/30 04:59:09;;;;;;;33.73;15.30;;;;;;;8.38;82.94;101732.97;1777130;80;21482;-65
2021/10/30 05:01:39;;;;;;;30.32;14.45;;;;;;;8.35;82.99;101733.27;1777225;80;21623;-67
2021/10/30 05:04:09;;;;;;;35.88;16.10;;;;;;;8.35;83.16;101729.17;1777232;81;21031;-69
2021/10/30 05:06:38;;;;;;;34.00;15.95;;;;;;;8.37;83.31;101737.21;1777622;81;21477;-68
2021/10/30 05:09:07;;;;;;;33.02;14.87;;;;;;;8.39;83.40;101741.52;1776741;80;22004;-65
2021/10/30 05:11:37;;;;;;;32.23;14.65;;;;;;;8.41;83.38;101740.86;1777279;80;21046;-67
2021/10/30 05:14:06;;;;;;;31.77;14.58;;;;;;;8.44;83.39;101739.19;1777289;81;21455;-65
2021/10/30 05:16:38;;;;;;;31.52;14.15;;;;;;;8.43;83.34;101733.38;1777498;80;21391;-66
2021/10/30 05:19:07;;;;;;;37.08;14.87;;;;;;;8.44;83.33;101731.00;1777099;80;21035;-67
2021/10/30 05:21:38;;;;;;;29.57;13.70;;;;;;;8.47;83.27;101737.55;1777182;80;21219;-66
2021/10/30 05:24:07;;;;;;;36.03;14.00;;;;;;;8.48;83.18;101743.38;1777354;81;21484;-66
2021/10/30 05:26:36;;;;;;;31.27;14.07;;;;;;;8.44;82.98;101737.83;1776998;80;21090;-66
2021/10/30 05:29:05;;;;;;;27.05;12.50;;;;;;;8.37;83.02;101739.44;1777225;80;21027;-65
2021/10/30 05:31:36;;;;;;;29.37;12.53;;;;;;;8.35;83.08;101742.83;1777013;80;21508;-66
2021/10/30 05:34:07;;;;;;;31.57;12.33;;;;;;;8.36;83.07;101747.28;1777192;81;21106;-66
2021/10/30 05:36:39;;;;;;;28.90;12.78;;;;;;;8.38;83.02;101752.09;1773112;81;21150;-65
2021/10/30 05:39:15;;;;;;;34.53;14.63;;;;;;;8.37;82.92;101755.83;1770940;79;21015;-67
2021/10/30 05:41:45;;;;;;;30.77;13.48;;;;;;;8.36;82.99;101750.01;1777015;81;21016;-66
2021/10/30 05:44:14;;;;;;;35.52;14.35;;;;;;;8.35;83.01;101755.63;1777158;79;21162;-64
2021/10/30 05:46:43;;;;;;;30.32;13.43;;;;;;;8.32;83.06;101757.25;1776930;81;21434;-64
2021/10/30 05:49:14;;;;;;;29.90;13.03;;;;;;;8.31;83.21;101760.99;1777124;81;21066;-66
2021/10/30 05:51:43;;;;;;;31.07;13.90;;;;;;;8.27;83.21;101768.63;1777396;80;21090;-65
2021/10/30 05:54:13;;;;;;;28.70;13.05;;;;;;;8.23;83.30;101765.84;1777342;80;21337;-65
2021/10/30 05:56:42;;;;;;;27.87;13.08;;;;;;;8.22;83.49;101762.75;1777296;81;21589;-65
2021/10/30 05:59:11;;;;;;;26.48;12.65;;;;;;;8.25;83.55;101769.28;1777374;80;21423;-66
2021/10/30 06:01:39;;;;;;;25.77;12.40;;;;;;;8.25;83.49;101769.28;1777524;80;21027;-68
2021/10/30 06:04:10;;;;;;;33.10;12.98;;;;;;;8.27;83.53;101774.09;1777459;81;21511;-67
2021/10/30 06:06:40;;;;;;;27.93;13.05;;;;;;;8.30;83.54;101776.52;1777304;81;21534;-66
2021/10/30 06:09:08;;;;;;;29.15;12.82;;;;;;;8.31;83.52;101775.52;1777368;81;21026;-66
2021/10/30 06:11:37;;;;;;;27.48;13.03;;;;;;;8.31;83.42;101772.78;1777239;81;21047;-67
2021/10/30 06:14:06;;;;;;;34.45;14.75;;;;;;;8.33;83.35;101780.82;1777119;81;21435;-67
2021/10/30 06:16:35;;;;;;;33.65;14.50;;;;;;;8.33;83.37;101781.72;1777731;81;21186;-67
2021/10/30 06:19:05;;;;;;;29.20;12.68;;;;;;;8.35;83.36;101775.60;1777527;80;21419;-66
2021/10/30 06:21:34;;;;;;;25.52;12.05;;;;;;;8.36;83.39;101781.42;1777199;81;21054;-66
2021/10/30 06:24:03;;;;;;;28.23;12.37;;;;;;;8.37;83.48;101780.91;1777435;80;21185;-65
2021/10/30 06:26:35;;;;;;;27.67;12.07;;;;;;;8.35;83.38;101781.06;1777560;80;21030;-66
2021/10/30 06:29:04;;;;;;;30.30;12.98;;;;;;;8.33;83.33;101776.72;1777041;80;21545;-67
2021/10/30 06:31:33;;;;;;;25.55;11.20;;;;;;;8.30;83.26;101781.12;1777105;81;21078;-67
2021/10/30 06:34:01;;;;;;;27.37;12.28;;;;;;;8.28;83.15;101774.44;1777267;80;20999;-67
2021/10/30 09:19:31;;;;;;;32.48;16.52;;;;;;;8.20;80.98;101815.28;1771784;80;28115;-57
2021/10/30 09:22:05;;;;;;;33.40;15.60;;;;;;;8.19;80.51;101819.02;1742169;82;21531;-56
2021/10/30 09:24:54;;;;;;;36.68;16.25;;;;;;;8.21;80.69;101818.38;1702890;81;21163;-58
2021/10/30 09:27:54;;;;;;;31.75;15.50;;;;;;;8.22;80.29;101822.32;1693471;84;21155;-58
2021/10/30 09:30:35;;;;;;;28.02;13.08;;;;;;;8.23;79.96;101827.28;1707740;83;21204;-57
2021/10/30 09:33:12;;;;;;;28.83;12.90;;;;;;;8.24;79.71;101824.91;1714283;81;21169;-60
2021/10/30 10:01:50;;;;;;;31.73;15.28;;;;;;;8.17;79.10;101804.16;1723615;81;21121;31
2021/10/30 10:04:50;;;;;;;37.00;15.43;;;;;;;8.09;78.92;101805.90;1628956;87;21156;-65
2021/10/30 10:07:43;;;;;;;39.85;19.00;;;;;;;8.06;79.18;101806.20;1630226;88;21197;-70
2021/10/30 10:10:46;;;;;;;39.45;18.10;;;;;;;8.03;79.29;101801.89;1604937;89;21523;-70
2021/10/30 10:13:45;;;;;;;39.80;18.02;;;;;;;7.97;79.43;101807.94;1615204;88;21151;-74
2021/10/30 10:16:27;;;;;;;44.25;18.80;;;;;;;7.94;79.73;101810.45;1601086;88;21095;-61
2021/10/30 10:19:10;;;;;;;38.05;18.67;;;;;;;7.95;79.88;101803.98;1608771;88;21199;-64
2021/10/30 10:21:53;;;;;;;38.55;18.52;;;;;;;8.02;80.02;101811.09;1610036;88;21443;-62
2021/10/30 10:27:14;;;;;;;42.23;18.10;;;;;;;8.08;79.86;101807.77;1609704;87;21260;-61
2021/10/30 10:29:56;;;;;;;44.40;19.10;;;;;;;8.07;79.69;101810.14;1629157;87;21130;-64
2021/10/30 10:32:26;;;;;;;41.37;18.75;;;;;;;8.08;79.69;101802.81;1616553;87;21645;-63
2021/10/30 10:35:08;;;;;;;40.45;20.92;;;;;;;8.07;79.64;101806.05;1631070;87;21177;-62
2021/10/30 10:37:48;;;;;;;46.40;22.82;;;;;;;8.05;79.68;101803.11;1623814;88;21297;-61
2021/10/30 10:40:31;;;;;;;44.73;20.25;;;;;;;8.07;79.85;101802.45;1637474;87;21169;-64
2021/10/30 10:43:01;;;;;;;51.30;21.60;;;;;;;8.12;79.98;101799.64;1626605;88;21311;-63
2021/10/30 10:45:49;;;;;;;51.55;22.32;;;;;;;8.20;79.91;101797.53;1629928;88;21222;-62
2021/10/30 10:48:23;;;;;;;50.92;22.07;;;;;;;8.27;79.82;101798.66;1653196;87;21168;-63
2021/10/30 10:51:03;;;;;;;46.25;22.60;;;;;;;8.32;79.57;101796.34;1629763;88;21215;-63
2021/10/30 10:53:34;;;;;;;47.15;22.42;;;;;;;8.33;79.50;101790.38;1615922;87;21544;-62
2021/10/30 10:56:05;;;;;;;48.50;23.05;;;;;;;8.33;79.36;101789.91;1629621;88;21318;-63
2021/10/30 10:59:03;;;;;;;51.00;22.35;;;;;;;8.35;79.37;101781.06;1636954;87;21138;-61
2021/10/30 11:01:38;;;;;;;55.85;21.95;;;;;;;8.39;79.25;101781.12;1637112;88;21201;-61
2021/10/30 11:04:26;;;;;;;48.50;22.00;;;;;;;8.38;79.04;101775.30;1640516;86;21154;-63
2021/10/30 11:07:13;;;;;;;57.15;24.00;;;;;;;8.38;79.20;101778.53;1646101;87;21592;-63
2021/10/30 11:12:29;;;;;;;47.48;21.35;;;;;;;8.37;79.34;101776.81;1635781;87;21297;-64
2021/10/30 11:15:11;;;;;;;41.23;17.62;;;;;;;8.37;79.40;101776.31;1635627;87;21232;-63
2021/10/30 11:20:44;;;;;;;47.93;20.97;;;;;;;8.41;79.60;101764.58;1590036;89;21202;-63
2021/10/30 11:23:34;;;;;;;48.25;22.20;;;;;;;8.41;79.58;101762.70;1643935;87;21311;-63
2021/10/30 11:26:09;;;;;;;46.02;21.35;;;;;;;8.42;79.53;101767.66;1635111;87;21252;-61
2021/10/30 11:28:37;;;;;;;52.80;22.02;;;;;;;8.39;79.49;101757.91;1587160;90;21201;-61
2021/10/30 11:31:30;;;;;;;43.68;20.48;;;;;;;8.38;79.47;101762.15;1590700;90;21221;-64
2021/10/30 11:34:00;;;;;;;53.42;22.48;;;;;;;8.39;79.55;101763.87;1588554;90;21205;-63
2021/10/30 11:39:39;;;;;;;41.92;20.05;;;;;;;8.41;79.75;101757.25;1585179;90;20266;-65
2021/10/30 11:42:30;;;;;;;44.93;20.48;;;;;;;8.41;79.78;101760.48;1585013;90;21173;-65
2021/10/30 11:44:59;;;;;;;33.25;16.82;;;;;;;8.42;79.75;101750.77;1585375;90;21311;-61
2021/10/30 11:50:47;;;;;;;36.53;17.02;;;;;;;8.41;79.53;101751.78;1643818;87;21157;-63
2021/10/30 11:53:38;;;;;;;42.48;16.55;;;;;;;8.36;79.40;101758.20;1643863;87;21650;-65
2021/10/30 11:56:16;;;;;;;37.78;17.75;;;;;;;8.36;79.56;101765.03;1644051;87;21164;-62
2021/10/30 11:58:49;;;;;;;40.12;18.98;;;;;;;8.34;79.46;101764.32;1644089;87;21210;-64
2021/10/30 12:01:48;;;;;;;40.67;20.77;;;;;;;8.30;79.46;101761.50;1643831;87;21221;-64
2021/10/30 12:04:35;;;;;;;41.30;18.50;;;;;;;8.26;79.64;101757.34;1644373;87;21121;-62
2021/10/30 12:07:19;;;;;;;41.18;18.85;;;;;;;8.25;79.85;101751.53;1644164;87;21300;-63
2021/10/30 12:10:02;;;;;;;40.00;18.60;;;;;;;8.20;79.98;101755.22;1644104;86;21101;-63
2021/10/30 12:15:42;;;;;;;33.58;17.27;;;;;;;8.17;80.22;101748.19;1623402;87;21169;-63
2021/10/30 12:18:18;;;;;;;38.10;17.32;;;;;;;8.17;80.38;101741.86;1639674;87;21217;-62
2021/10/30 12:27:10;;;;;;;40.05;19.17;;;;;;;8.17;80.43;101733.67;1642548;87;21641;-63
2021/10/30 12:29:52;;;;;;;35.85;17.75;;;;;;;8.19;80.38;101731.14;1644870;87;21910;-63
2021/10/30 12:35:32;;;;;;;31.15;14.53;;;;;;;8.12;79.89;101722.34;1646114;87;21248;-62
2021/10/30 12:40:56;;;;;;;42.30;18.23;;;;;;;8.10;79.68;101740.73;1649264;86;20227;-62
2021/10/30 12:50:03;;;;;;;43.80;20.40;;;;;;;8.14;79.64;101730.73;1624071;87;22064;-64
2021/10/30 12:52:50;;;;;;;47.83;19.12;;;;;;;8.21;79.56;101733.73;1635790;87;21149;-62
2021/10/30 12:55:52;;;;;;;40.78;20.00;;;;;;;8.27;79.42;101728.52;1657885;86;21142;-65
2021/10/30 12:59:00;;;;;;;47.08;20.62;;;;;;;8.32;79.24;101732.67;1634752;86;21702;-62
2021/10/30 13:01:37;;;;;;;;;;;;;;;8.35;79.10;101729.68;1647471;86;21571;-62
2021/10/30 13:04:11;;;;;;;42.70;18.70;;;;;;;8.36;78.85;101736.86;1623513;88;20204;-63
2021/10/30 13:06:43;;;;;;;45.40;19.77;;;;;;;8.36;78.80;101732.26;1602862;88;21143;-63
2021/10/30 13:09:24;;;;;;;50.17;19.77;;;;;;;8.39;78.66;101742.02;1582795;89;21177;-61
2021/10/30 13:12:13;;;;;;;51.33;21.55;;;;;;;8.43;78.56;101736.11;1581675;89;21287;-63
2021/10/30 13:14:49;;;;;;;45.75;21.02;;;;;;;8.47;78.52;101738.06;1584501;89;21205;-63
2021/10/30 13:17:21;;;;;;;43.85;21.05;;;;;;;8.51;78.49;101730.77;1606471;88;21667;-62
2021/10/30 13:22:48;;;;;;;38.38;20.25;;;;;;;8.58;78.04;101725.56;1583783;89;21183;-63
2021/10/30 13:25:19;;;;;;;45.67;20.27;;;;;;;8.61;77.73;101727.98;1570724;89;21168;-63
2021/10/30 13:27:52;;;;;;;39.78;19.05;;;;;;;8.63;77.62;101716.41;1620561;88;21251;-63
2021/10/30 13:30:47;;;;;;;35.60;18.07;;;;;;;8.67;77.43;101724.65;1610095;86;21189;-62
2021/10/30 13:33:20;;;;;;;32.33;17.62;;;;;;;8.68;77.21;101721.41;1662330;86;21302;-63
2021/10/30 13:36:07;;;;;;;36.15;17.82;;;;;;;8.69;77.09;101716.30;1605518;86;21134;-61
2021/10/30 13:38:38;;;;;;;40.28;18.57;;;;;;;8.72;76.97;101711.89;1631991;87;21683;-62
2021/10/30 13:44:40;;;;;;;27.48;16.80;;;;;;;8.73;76.85;101721.81;1657814;86;21191;-63
2021/10/30 13:47:12;;;;;;;52.98;16.80;;;;;;;8.72;76.76;101718.22;1629487;88;21131;-64
2021/10/30 13:49:42;;;;;;;24.18;13.83;;;;;;;8.71;76.68;101717.86;1656106;86;21314;-63
2021/10/30 13:52:13;;;;;;;21.52;11.50;;;;;;;8.72;76.62;101718.22;1627061;87;21581;-63
2021/10/30 13:54:43;;;;;;;16.40;9.68;;;;;;;8.70;76.44;101724.34;1654396;86;21194;-62
2021/10/30 13:57:12;;;;;;;34.73;21.33;;;;;;;8.68;76.34;101714.58;1645315;86;21637;-64
2021/10/30 13:59:58;;;;;;;18.57;9.80;;;;;;;8.64;76.42;101715.89;1654581;86;21218;-62
2021/10/30 14:02:27;;;;;;;16.93;9.73;;;;;;;8.63;76.48;101713.67;1641497;86;21192;-62
2021/10/30 14:04:57;;;;;;;12.40;8.28;;;;;;;8.66;76.52;101713.88;1636540;86;21170;-62
2021/10/30 14:07:32;;;;;;;15.15;9.58;;;;;;;8.66;76.38;101713.88;1634247;86;21709;-63
2021/10/30 14:10:01;;;;;;;17.20;10.20;;;;;;;8.60;76.44;101705.78;1642771;86;21674;-63
2021/10/30 14:12:30;;;;;;;14.20;8.38;;;;;;;8.61;76.49;101713.47;1640896;86;21635;-61
2021/10/30 14:14:59;;;;;;;14.23;8.40;;;;;;;8.64;76.52;101704.97;1615917;87;21196;-63
2021/10/30 14:20:34;;;;;;;15.30;9.65;;;;;;;8.68;76.36;101712.70;1639639;86;21145;-62
2021/10/30 14:23:03;;;;;;;17.30;9.23;;;;;;;8.67;76.37;101709.62;1636154;86;21163;-63
2021/10/30 14:25:33;;;;;;;19.80;9.40;;;;;;;8.71;76.42;101711.03;1646436;86;21385;-64
2021/10/30 14:28:03;;;;;;;17.95;8.65;;;;;;;8.73;76.29;101706.78;1648712;86;21304;-63
2021/10/30 14:30:33;;;;;;;19.82;8.88;;;;;;;8.77;76.22;101704.95;1632577;86;21153;-63
2021/10/30 14:33:02;;;;;;;17.35;8.70;;;;;;;8.80;76.42;101706.52;1646713;87;21585;-61
2021/10/30 14:35:33;;;;;;;18.32;8.38;;;;;;;8.84;76.23;101706.56;1647384;87;21735;-64
2021/10/30 14:38:03;;;;;;;12.20;7.15;;;;;;;8.82;75.90;101703.12;1625370;87;21230;-63
2021/10/30 14:40:32;;;;;;;12.78;6.50;;;;;;;8.79;75.62;101707.53;1611144;88;21147;-62
2021/10/30 14:43:03;;;;;;;11.97;6.40;;;;;;;8.77;75.40;101706.83;1643477;86;21141;-61
2021/10/30 14:45:33;;;;;;;11.57;6.45;;;;;;;8.75;75.37;101706.12;1633138;86;21682;-62
2021/10/30 14:48:02;;;;;;;13.70;7.15;;;;;;;8.75;75.82;101702.02;1639827;86;21269;-63
2021/10/30 14:50:31;;;;;;;14.68;6.78;;;;;;;8.76;75.63;101707.33;1647633;86;21189;-64
2021/10/30 14:55:56;;;;;;;16.52;8.20;;;;;;;8.78;75.47;101708.55;1620623;88;21288;-64
2021/10/30 14:58:25;;;;;;;19.75;8.78;;;;;;;8.80;75.28;101706.52;1621903;88;21257;-64
2021/10/30 15:00:54;;;;;;;16.82;8.03;;;;;;;8.79;75.30;101703.43;1621759;88;21317;-65
2021/10/30 15:03:24;;;;;;;18.07;8.23;;;;;;;8.81;75.37;101702.27;1621970;88;21276;-62
2021/10/30 15:05:53;;;;;;;18.73;8.95;;;;;;;8.85;75.37;101701.44;1625778;87;21269;-63
2021/10/30 15:08:23;;;;;;;15.70;8.13;;;;;;;8.85;75.22;101700.94;1626042;88;21178;-62
2021/10/30 15:10:52;;;;;;;14.73;8.18;;;;;;;8.86;75.11;101700.43;1626325;88;21609;-62
2021/10/30 15:13:22;;;;;;;18.95;8.88;;;;;;;8.87;75.11;101696.68;1625839;88;21155;-63
2021/10/30 15:15:52;;;;;;;15.10;8.05;;;;;;;8.87;75.08;101695.31;1626247;88;21573;-62
2021/10/30 15:18:21;;;;;;;17.57;8.08;;;;;;;8.86;75.13;101699.06;1626177;88;21201;-62
2021/10/30 15:20:51;;;;;;;14.20;8.28;;;;;;;8.84;75.17;101697.85;1593108;89;21191;-62
2021/10/30 15:23:20;;;;;;;15.60;8.05;;;;;;;8.85;75.21;101700.94;1593073;89;21270;-62
2021/10/30 15:25:49;;;;;;;14.23;7.83;;;;;;;8.87;75.25;101701.64;1593172;90;21234;-64
2021/10/30 15:28:18;;;;;;;13.22;7.62;;;;;;;8.91;75.28;101702.19;1593029;90;21170;-61
2021/10/30 15:30:48;;;;;;;12.15;7.78;;;;;;;8.91;75.29;101704.92;1593110;90;21182;-63
2021/10/30 15:33:16;;;;;;;13.75;7.80;;;;;;;8.94;75.32;101699.66;1593041;90;21210;-64
2021/10/30 15:35:47;;;;;;;15.68;8.25;;;;;;;8.95;75.33;101703.59;1593171;90;21230;-62
2021/10/30 15:38:15;;;;;;;14.68;7.90;;;;;;;8.95;75.30;101695.40;1599223;88;21185;-63
2021/10/30 15:40:46;;;;;;;16.65;8.68;;;;;;;8.96;75.33;101697.12;1626212;88;21630;-63